createdAt,value
2017-08-13T00:01:07.563Z,100893.41
2017-08-13T00:03:36.596Z,100897.80
2017-08-13T00:06:05.150Z,100893.09
2017-08-13T00:08:33.843Z,100895.78
2017-08-13T00:11:02.313Z,100891.95
2017-08-13T00:13:31.191Z,100895.78
2017-08-13T00:15:59.910Z,100894.59
2017-08-13T00:18:28.625Z,100890.78
2017-08-13T00:20:57.314Z,100897.59
2017-08-13T00:23:26.175Z,100894.72
2017-08-13T00:25:55.048Z,100895.70
2017-08-13T00:28:23.816Z,100896.16
2017-08-13T00:30:52.510Z,100905.99
2017-08-13T00:33:22.053Z,100898.55
2017-08-13T00:35:53.027Z,100904.34
2017-08-13T00:38:22.715Z,100904.39
2017-08-13T00:40:51.411Z,100907.08
2017-08-13T00:43:20.220Z,100908.06
2017-08-13T00:45:48.899Z,100908.06
2017-08-13T00:48:18.519Z,100911.42
2017-08-13T00:50:47.466Z,100914.89
2017-08-13T00:53:16.168Z,100913.59
2017-08-13T00:55:44.874Z,100909.16
2017-08-13T00:58:13.984Z,100917.79
2017-08-13T01:00:42.387Z,100909.16
2017-08-13T01:03:11.282Z,100900.56
2017-08-13T01:05:39.970Z,100904.39
2017-08-13T01:08:08.739Z,100901.91
2017-08-13T01:10:37.440Z,100903.25
2017-08-13T01:13:06.833Z,100905.73
2017-08-13T01:15:36.007Z,100909.72
2017-08-13T01:18:04.470Z,100910.75
2017-08-13T01:20:33.178Z,100916.34
2017-08-13T01:23:05.533Z,100916.80
2017-08-13T01:25:34.321Z,100920.73
2017-08-13T01:28:03.075Z,100919.92
2017-08-13T01:30:31.847Z,100923.06
2017-08-13T01:33:04.749Z,100927.69
2017-08-13T01:35:33.459Z,100922.52
2017-08-13T01:38:02.129Z,100923.78
2017-08-13T01:40:30.815Z,100927.94
2017-08-13T01:43:04.160Z,100925.91
2017-08-13T01:45:33.327Z,100922.08
2017-08-13T01:48:02.113Z,100929.84
2017-08-13T01:50:30.850Z,100931.60
2017-08-13T01:53:02.223Z,100936.16
2017-08-13T01:55:31.126Z,100934.20
2017-08-13T01:57:59.901Z,100932.13
2017-08-13T02:00:29.739Z,100938.59
2017-08-13T02:02:58.794Z,100938.22
2017-08-13T02:05:27.435Z,100939.25
2017-08-13T02:07:56.231Z,100938.01
2017-08-13T02:10:25.005Z,100935.05
2017-08-13T02:12:54.366Z,100946.28
2017-08-13T02:15:23.119Z,100942.66
2017-08-13T02:17:52.248Z,100946.64
2017-08-13T02:20:25.887Z,100945.20
2017-08-13T02:22:56.021Z,100951.81
2017-08-13T02:25:25.655Z,100952.28
2017-08-13T02:27:54.621Z,100951.03
2017-08-13T02:30:23.848Z,100952.28
2017-08-13T02:32:52.839Z,100952.18
2017-08-13T02:35:21.513Z,100955.59
2017-08-13T02:37:50.364Z,100954.35
2017-08-13T02:40:19.118Z,100959.52
2017-08-13T02:42:47.899Z,100960.45
2017-08-13T02:45:16.617Z,100966.13
2017-08-13T02:47:45.848Z,100970.28
2017-08-13T02:50:14.550Z,100968.94
2017-08-13T02:52:43.313Z,100969.92
2017-08-13T02:55:12.138Z,100975.45
2017-08-13T02:57:41.979Z,100971.63
2017-08-13T03:00:10.587Z,100972.35
2017-08-13T03:02:39.506Z,100978.92
2017-08-13T03:05:08.350Z,100978.41
2017-08-13T03:07:41.138Z,100980.99
2017-08-13T03:10:12.912Z,100979.33
2017-08-13T03:12:41.723Z,100981.41
2017-08-13T03:15:10.892Z,100978.41
2017-08-13T03:17:39.913Z,100989.77
2017-08-13T03:20:08.914Z,100992.45
2017-08-13T03:22:38.531Z,100995.94
2017-08-13T03:25:07.430Z,100992.47
2017-08-13T03:27:36.036Z,100988.70
2017-08-13T03:30:04.874Z,100993.91
2017-08-13T03:32:33.599Z,100998.57
2017-08-13T03:35:02.351Z,101000.16
2017-08-13T03:37:31.373Z,101002.91
2017-08-13T03:40:00.429Z,101008.91
2017-08-13T03:42:29.181Z,101011.19
2017-08-13T03:44:58.205Z,101007.72
2017-08-13T03:47:26.924Z,101012.11
2017-08-13T03:49:55.845Z,101017.48
2017-08-13T03:52:24.857Z,101024.45
2017-08-13T03:54:53.832Z,101029.58
2017-08-13T03:57:22.531Z,101026.63
2017-08-13T03:59:51.395Z,101032.25
2017-08-13T04:02:20.784Z,101026.58
2017-08-13T04:04:50.065Z,101034.08
2017-08-13T04:07:19.143Z,101037.64
2017-08-13T04:09:48.070Z,101047.14
2017-08-13T04:12:17.172Z,101048.48
2017-08-13T04:14:46.045Z,101054.91
2017-08-13T04:17:16.242Z,101057.68
2017-08-13T04:19:45.032Z,101055.37
2017-08-13T04:22:13.904Z,101058.00
2017-08-13T04:24:42.866Z,101065.24
2017-08-13T04:27:11.750Z,101065.30
2017-08-13T04:29:40.913Z,101068.61
2017-08-13T04:32:09.694Z,101070.37
2017-08-13T04:34:38.444Z,101074.24
2017-08-13T04:37:06.888Z,101079.92
2017-08-13T04:39:35.649Z,101077.30
2017-08-13T04:42:04.437Z,101080.02
2017-08-13T04:44:33.210Z,101084.36
2017-08-13T04:47:01.650Z,101086.11
2017-08-13T04:49:30.659Z,101095.48
2017-08-13T04:51:59.210Z,101097.19
2017-08-13T04:54:28.748Z,101100.56
2017-08-13T04:56:57.509Z,101099.83
2017-08-13T04:59:28.216Z,101103.97
2017-08-13T05:01:56.924Z,101111.17
2017-08-13T05:04:25.701Z,101114.20
2017-08-13T05:06:54.574Z,101114.94
2017-08-13T05:09:23.340Z,101116.31
2017-08-13T05:11:52.607Z,101119.41
2017-08-13T05:14:21.504Z,101122.92
2017-08-13T05:16:50.513Z,101125.97
2017-08-13T05:19:19.164Z,101123.45
2017-08-13T05:21:47.991Z,101132.11
2017-08-13T05:24:18.039Z,101132.76
2017-08-13T05:26:46.826Z,101137.37
2017-08-13T05:29:15.925Z,101145.13
2017-08-13T05:31:44.743Z,101145.96
2017-08-13T05:34:14.630Z,101148.30
2017-08-13T05:36:43.333Z,101149.13
2017-08-13T05:39:12.065Z,101162.28
2017-08-13T05:41:41.797Z,101162.37
2017-08-13T05:44:11.358Z,101168.75
2017-08-13T05:46:40.976Z,101170.45
2017-08-13T05:49:09.807Z,101177.45
2017-08-13T05:51:38.583Z,101179.48
2017-08-13T05:54:07.475Z,101182.02
2017-08-13T05:56:36.430Z,101188.77
2017-08-13T05:59:05.318Z,101186.40
2017-08-13T06:01:34.017Z,101190.53
2017-08-13T06:04:02.801Z,101202.45
2017-08-13T06:06:32.304Z,101203.70
2017-08-13T06:09:01.169Z,101201.38
2017-08-13T06:11:30.174Z,101205.11
2017-08-13T06:13:59.455Z,101203.67
2017-08-13T06:16:28.461Z,101213.83
2017-08-13T06:18:57.240Z,101213.73
2017-08-13T06:21:25.983Z,101213.64
2017-08-13T06:23:54.925Z,101215.34
2017-08-13T06:26:24.013Z,101212.66
2017-08-13T06:28:53.659Z,101214.31
2017-08-13T06:31:22.372Z,101208.58
2017-08-13T06:33:51.196Z,101213.61
2017-08-13T06:36:19.960Z,101216.05
2017-08-13T06:38:48.999Z,101225.80
2017-08-13T06:41:18.784Z,101227.02
2017-08-13T06:43:47.622Z,101232.89
2017-08-13T06:46:16.566Z,101236.26
2017-08-13T06:48:45.545Z,101238.70
2017-08-13T06:51:14.307Z,101246.74
2017-08-13T06:53:43.087Z,101248.41
2017-08-13T06:56:12.612Z,101250.46
2017-08-13T06:58:41.323Z,101256.80
2017-08-13T07:01:10.055Z,101254.89
2017-08-13T07:03:38.996Z,101252.14
2017-08-13T07:06:07.995Z,101257.62
2017-08-13T07:08:36.693Z,101256.59
2017-08-13T07:11:05.447Z,101255.56
2017-08-13T07:13:34.974Z,101260.14
2017-08-13T07:16:03.719Z,101260.44
2017-08-13T07:18:32.363Z,101262.37
2017-08-13T07:21:01.538Z,101269.43
2017-08-13T07:23:30.231Z,101272.22
2017-08-13T07:25:59.026Z,101269.29
2017-08-13T07:28:28.655Z,101278.92
2017-08-13T07:30:57.378Z,101285.01
2017-08-13T07:33:26.181Z,101288.11
2017-08-13T07:35:54.892Z,101287.72
2017-08-13T07:38:23.984Z,101290.92
2017-08-13T07:40:52.722Z,101294.09
2017-08-13T07:43:22.008Z,101288.77
2017-08-13T07:45:50.799Z,101291.59
2017-08-13T07:48:19.646Z,101297.47
2017-08-13T07:50:48.545Z,101305.97
2017-08-13T07:53:17.297Z,101304.67
2017-08-13T07:55:46.143Z,101312.30
2017-08-13T07:58:15.037Z,101307.02
2017-08-13T08:00:43.735Z,101305.97
2017-08-13T08:03:12.557Z,101306.55
2017-08-13T08:05:41.338Z,101310.65
2017-08-13T08:08:10.443Z,101313.33
2017-08-13T08:10:39.997Z,101309.92
2017-08-13T08:13:09.171Z,101311.19
2017-08-13T08:15:37.971Z,101311.12
2017-08-13T08:18:06.790Z,101312.42
2017-08-13T08:20:35.298Z,101310.73
2017-08-13T08:23:05.591Z,101317.70
2017-08-13T08:25:34.270Z,101311.75
2017-08-13T08:28:02.915Z,101315.80
2017-08-13T08:30:31.710Z,101314.06
2017-08-13T08:33:04.558Z,101314.22
2017-08-13T08:35:33.260Z,101316.59
2017-08-13T08:38:01.925Z,101318.29
2017-08-13T08:40:30.711Z,101317.05
2017-08-13T08:43:03.928Z,101324.08
2017-08-13T08:45:32.415Z,101327.86
2017-08-13T08:48:01.954Z,101334.77
2017-08-13T08:50:30.860Z,101343.57
2017-08-13T08:53:02.069Z,101353.05
2017-08-13T08:55:32.167Z,101353.70
2017-08-13T08:58:01.356Z,101350.38
2017-08-13T09:00:30.492Z,101359.41
2017-08-13T09:03:03.761Z,101371.58
2017-08-13T09:05:32.619Z,101374.07
2017-08-13T09:08:01.632Z,101376.09
2017-08-13T09:10:30.729Z,101387.42
2017-08-13T09:13:04.176Z,101395.12
2017-08-13T09:15:33.272Z,101388.58
2017-08-13T09:18:02.294Z,101389.98
2017-08-13T09:20:31.379Z,101391.06
2017-08-13T09:23:04.095Z,101389.56
2017-08-13T09:25:32.993Z,101393.97
2017-08-13T09:28:01.865Z,101397.56
2017-08-13T09:30:31.529Z,101388.63
2017-08-13T09:33:02.767Z,101395.43
2017-08-13T09:35:31.372Z,101392.01
2017-08-13T09:38:00.361Z,101389.31
2017-08-13T09:40:29.448Z,101393.45
2017-08-13T09:42:59.404Z,101387.48
2017-08-13T09:45:28.501Z,101389.19
2017-08-13T09:47:57.549Z,101390.34
2017-08-13T09:50:26.665Z,101388.94
2017-08-13T09:52:55.736Z,101387.91
2017-08-13T09:55:24.716Z,101381.98
2017-08-13T09:57:53.671Z,101386.45
2017-08-13T10:00:22.464Z,101385.97
2017-08-13T10:02:50.970Z,101390.07
2017-08-13T10:05:19.805Z,101397.44
2017-08-13T10:07:48.925Z,101401.94
2017-08-13T10:10:17.804Z,101401.06
2017-08-13T10:12:46.391Z,101397.93
2017-08-13T10:15:15.874Z,101414.62
2017-08-13T10:17:45.589Z,101418.86
2017-08-13T10:20:14.321Z,101412.08
2017-08-13T10:22:43.290Z,101414.34
2017-08-13T10:25:13.264Z,101406.80
2017-08-13T10:27:43.051Z,101412.87
2017-08-13T10:30:12.688Z,101409.64
2017-08-13T10:32:41.443Z,101408.67
2017-08-13T10:35:10.335Z,101411.73
2017-08-13T10:37:39.050Z,101413.41
2017-08-13T10:40:07.838Z,101418.34
2017-08-13T10:42:36.678Z,101419.48
2017-08-13T10:45:06.533Z,101420.70
2017-08-13T10:47:35.476Z,101426.45
2017-08-13T10:50:04.337Z,101427.76
2017-08-13T10:52:33.013Z,101428.20
2017-08-13T10:55:01.777Z,101428.75
2017-08-13T10:57:31.009Z,101431.13
2017-08-13T10:59:59.496Z,101432.98
2017-08-13T11:02:28.502Z,101423.09
2017-08-13T11:04:57.234Z,101424.81
2017-08-13T11:07:25.806Z,101424.53
2017-08-13T11:09:54.681Z,101429.91
2017-08-13T11:12:23.572Z,101428.84
2017-08-13T11:14:52.644Z,101431.39
2017-08-13T11:17:21.384Z,101439.48
2017-08-13T11:19:50.136Z,101433.46
2017-08-13T11:22:18.941Z,101430.42
2017-08-13T11:24:48.518Z,101431.75
2017-08-13T11:27:17.483Z,101424.53
2017-08-13T11:29:46.618Z,101431.34
2017-08-13T11:32:15.402Z,101432.64
2017-08-13T11:34:44.126Z,101435.62
2017-08-13T11:37:12.932Z,101432.69
2017-08-13T11:39:41.651Z,101432.50
2017-08-13T11:42:10.347Z,101436.95
2017-08-13T11:44:39.042Z,101438.02
2017-08-13T11:47:07.740Z,101439.62
2017-08-13T11:49:36.261Z,101434.95
2017-08-13T11:52:04.945Z,101444.94
2017-08-13T11:54:34.528Z,101437.97
2017-08-13T11:57:03.218Z,101428.38
2017-08-13T11:59:31.897Z,101433.69
2017-08-13T12:02:00.557Z,101433.82
2017-08-13T12:04:29.558Z,101434.59
2017-08-13T12:06:58.235Z,101443.94
2017-08-13T12:09:26.957Z,101448.06
2017-08-13T12:11:55.662Z,101449.84
2017-08-13T12:14:24.386Z,101444.20
2017-08-13T12:16:53.085Z,101449.05
2017-08-13T12:19:21.694Z,101448.75
2017-08-13T12:21:50.423Z,101451.38
2017-08-13T12:24:19.955Z,101443.80
2017-08-13T12:26:48.654Z,101452.38
2017-08-13T12:29:17.305Z,101450.59
2017-08-13T12:31:46.062Z,101451.84
2017-08-13T12:34:14.751Z,101454.06
2017-08-13T12:36:43.503Z,101454.09
2017-08-13T12:39:12.177Z,101455.57
2017-08-13T12:41:40.952Z,101465.41
2017-08-13T12:44:09.696Z,101460.56
2017-08-13T12:46:38.428Z,101463.13
2017-08-13T12:49:07.139Z,101461.86
2017-08-13T12:51:35.901Z,101463.84
2017-08-13T12:54:04.618Z,101468.41
2017-08-13T12:56:33.273Z,101474.98
2017-08-13T12:59:02.043Z,101478.19
2017-08-13T13:01:30.775Z,101477.41
2017-08-13T13:03:59.465Z,101483.63
2017-08-13T13:06:28.157Z,101480.55
2017-08-13T13:08:57.785Z,101478.06
2017-08-13T13:11:26.538Z,101478.30
2017-08-13T13:13:55.596Z,101480.82
2017-08-13T13:16:24.290Z,101485.27
2017-08-13T13:18:53.072Z,101486.33
2017-08-13T13:21:22.620Z,101480.14
2017-08-13T13:23:51.400Z,101492.05
2017-08-13T13:26:20.136Z,101490.89
2017-08-13T13:28:48.930Z,101491.94
2017-08-13T13:31:17.581Z,101492.47
2017-08-13T13:33:46.293Z,101505.02
2017-08-13T13:36:14.987Z,101501.66
2017-08-13T13:38:43.728Z,101490.92
2017-08-13T13:41:12.477Z,101492.29
2017-08-13T13:43:41.239Z,101500.34
2017-08-13T13:46:09.899Z,101505.23
2017-08-13T13:48:39.417Z,101490.84
2017-08-13T13:51:08.126Z,101499.42
2017-08-13T13:53:36.844Z,101495.25
2017-08-13T13:56:05.633Z,101497.27
2017-08-13T13:58:34.010Z,101497.31
2017-08-13T14:01:02.695Z,101499.80
2017-08-13T14:03:32.357Z,101502.70
2017-08-13T14:06:01.020Z,101500.66
2017-08-13T14:08:29.960Z,101504.73
2017-08-13T14:10:58.712Z,101512.15
2017-08-13T14:13:27.108Z,101520.75
2017-08-13T14:15:56.758Z,101512.75
2017-08-13T14:18:25.537Z,101523.95
2017-08-13T14:20:54.190Z,101533.02
2017-08-13T14:23:22.898Z,101535.45
2017-08-13T14:25:51.594Z,101528.16
2017-08-13T14:28:20.300Z,101532.48
2017-08-13T14:30:49.020Z,101529.05
2017-08-13T14:33:17.755Z,101528.81
2017-08-13T14:35:47.420Z,101535.34
2017-08-13T14:38:16.324Z,101534.09
2017-08-13T14:40:45.684Z,101537.48
2017-08-13T14:43:14.470Z,101545.75
2017-08-13T14:45:42.680Z,101548.67
2017-08-13T14:48:11.248Z,101541.55
2017-08-13T14:50:39.899Z,101543.25
2017-08-13T14:53:08.648Z,101542.86
2017-08-13T14:55:37.330Z,101545.86
2017-08-13T14:58:05.957Z,101543.89
2017-08-13T15:00:34.778Z,101540.09
2017-08-13T15:03:04.516Z,101543.17
2017-08-13T15:05:33.240Z,101542.86
2017-08-13T15:08:01.950Z,101542.05
2017-08-13T15:10:30.700Z,101546.91
2017-08-13T15:13:02.777Z,101549.77
2017-08-13T15:15:31.508Z,101547.57
2017-08-13T15:18:00.210Z,101549.22
2017-08-13T15:20:28.912Z,101551.77
2017-08-13T15:22:57.568Z,101557.08
2017-08-13T15:25:26.288Z,101553.80
2017-08-13T15:27:55.831Z,101562.34
2017-08-13T15:30:24.521Z,101563.64
2017-08-13T15:32:53.222Z,101560.45
2017-08-13T15:35:21.941Z,101564.47
2017-08-13T15:37:50.679Z,101558.42
2017-08-13T15:40:19.382Z,101564.47
2017-08-13T15:42:48.067Z,101570.83
2017-08-13T15:45:16.794Z,101573.92
2017-08-13T15:47:45.483Z,101566.86
2017-08-13T15:50:14.217Z,101576.34
2017-08-13T15:52:43.671Z,101574.20
2017-08-13T15:55:12.352Z,101577.55
2017-08-13T15:57:41.098Z,101570.60
2017-08-13T16:00:09.809Z,101572.14
2017-08-13T16:02:39.343Z,101570.77
2017-08-13T16:05:08.100Z,101562.52
2017-08-13T16:07:36.789Z,101566.44
2017-08-13T16:10:05.466Z,101565.14
2017-08-13T16:12:34.163Z,101565.38
2017-08-13T16:15:03.585Z,101574.62
2017-08-13T16:17:32.222Z,101575.16
2017-08-13T16:20:01.189Z,101571.96
2017-08-13T16:22:29.830Z,101571.05
2017-08-13T16:24:58.535Z,101577.44
2017-08-13T16:27:27.227Z,101580.47
2017-08-13T16:29:56.907Z,101580.70
2017-08-13T16:32:25.678Z,101578.09
2017-08-13T16:34:54.387Z,101579.11
2017-08-13T16:37:23.174Z,101576.08
2017-08-13T16:39:52.806Z,101581.45
2017-08-13T16:42:21.535Z,101577.86
2017-08-13T16:44:50.283Z,101583.41
2017-08-13T16:47:18.988Z,101583.35
2017-08-13T16:49:47.726Z,101589.25
2017-08-13T16:52:16.381Z,101587.77
2017-08-13T16:54:45.059Z,101589.13
2017-08-13T16:57:13.841Z,101592.73
2017-08-13T16:59:42.580Z,101600.45
2017-08-13T17:02:11.249Z,101600.52
2017-08-13T17:04:50.101Z,101599.70
2017-08-13T17:07:18.896Z,101598.23
2017-08-13T17:09:47.672Z,101600.72
2017-08-13T17:12:16.425Z,101602.74
2017-08-13T17:14:45.125Z,101604.03
2017-08-13T17:17:15.972Z,101601.55
2017-08-13T17:19:45.876Z,101606.37
2017-08-13T17:22:14.580Z,101609.37
2017-08-13T17:24:43.289Z,101605.39
2017-08-13T17:27:12.049Z,101609.73
2017-08-13T17:29:43.816Z,101613.14
2017-08-13T17:32:12.587Z,101611.52
2017-08-13T17:34:53.285Z,101607.61
2017-08-13T17:37:36.102Z,101612.08
2017-08-13T17:40:17.786Z,101618.73
2017-08-13T17:42:58.013Z,101616.27
2017-08-13T17:45:39.331Z,101623.85
2017-08-13T17:48:24.099Z,101627.73
2017-08-13T17:51:06.195Z,101622.16
2017-08-13T17:53:44.381Z,101618.69
2017-08-13T17:56:24.369Z,101621.80
2017-08-13T17:59:09.876Z,101626.92
2017-08-13T18:01:49.652Z,101624.56
2017-08-13T18:04:31.671Z,101631.58
2017-08-13T18:07:15.089Z,101634.66
2017-08-13T18:09:56.228Z,101632.79
2017-08-13T18:12:40.547Z,101638.78
2017-08-13T18:15:22.952Z,101636.52
2017-08-13T18:18:02.004Z,101637.83
2017-08-13T18:20:41.732Z,101641.34
2017-08-13T18:23:20.027Z,101642.23
2017-08-13T18:26:03.049Z,101646.87
2017-08-13T18:28:45.213Z,101651.25
2017-08-13T18:31:14.547Z,101651.16
2017-08-13T18:33:43.202Z,101652.77
2017-08-13T18:36:11.892Z,101654.09
2017-08-13T18:38:56.291Z,101655.77
2017-08-13T18:41:34.924Z,101660.06
2017-08-13T18:44:14.395Z,101663.51
2017-08-13T18:46:54.810Z,101673.11
2017-08-13T18:49:34.496Z,101673.08
2017-08-13T18:52:14.572Z,101678.22
2017-08-13T18:54:52.112Z,101672.73
2017-08-13T18:57:31.720Z,101681.36
2017-08-13T19:00:12.726Z,101684.27
2017-08-13T19:02:54.721Z,101682.20
2017-08-13T19:05:33.372Z,101686.41
2017-08-13T19:08:15.258Z,101688.61
2017-08-13T19:10:56.794Z,101697.63
2017-08-13T19:13:26.305Z,101699.38
2017-08-13T19:16:08.527Z,101707.13
2017-08-13T19:18:52.865Z,101709.19
2017-08-13T19:21:37.249Z,101711.83
2017-08-13T19:24:20.719Z,101716.85
2017-08-13T19:26:59.982Z,101720.34
2017-08-13T19:29:40.535Z,101717.66
2017-08-13T19:32:20.129Z,101720.59
2017-08-13T19:35:04.542Z,101726.98
2017-08-13T19:37:34.155Z,101731.16
2017-08-13T19:40:02.813Z,101731.10
2017-08-13T19:42:31.582Z,101727.96
2017-08-13T19:45:00.527Z,101729.61
2017-08-13T19:47:29.280Z,101729.98
2017-08-13T19:49:58.762Z,101727.62
2017-08-13T19:52:27.508Z,101725.26
2017-08-13T19:54:57.393Z,101733.25
2017-08-13T19:57:27.361Z,101739.08
2017-08-13T19:59:57.143Z,101734.22
2017-08-13T20:02:26.353Z,101735.37
2017-08-13T20:04:55.079Z,101737.18
2017-08-13T20:07:23.781Z,101735.88
2017-08-13T20:09:52.601Z,101739.92
2017-08-13T20:12:21.493Z,101740.66
2017-08-13T20:14:55.679Z,101741.38
2017-08-13T20:17:35.987Z,101746.95
2017-08-13T20:20:12.912Z,101742.49
2017-08-13T20:22:51.082Z,101757.45
2017-08-13T20:25:30.316Z,101750.56
2017-08-13T20:28:10.295Z,101749.56
2017-08-13T20:30:49.034Z,101765.59
2017-08-13T20:33:28.125Z,101760.75
2017-08-13T20:36:11.008Z,101766.47
2017-08-13T20:38:54.571Z,101760.95
2017-08-13T20:41:36.467Z,101766.92
2017-08-13T20:44:17.781Z,101775.30
2017-08-13T20:47:04.074Z,101769.41
2017-08-13T20:49:48.041Z,101777.50
2017-08-13T20:52:35.052Z,101779.98
2017-08-13T20:55:19.417Z,101786.23
2017-08-13T20:58:05.247Z,101783.09
2017-08-13T21:00:50.892Z,101785.98
2017-08-13T21:03:37.120Z,101791.86
2017-08-13T21:06:23.635Z,101792.05
2017-08-13T21:09:10.809Z,101792.69
2017-08-13T21:11:54.177Z,101795.06
2017-08-13T21:14:37.870Z,101793.58
2017-08-13T21:17:20.610Z,101786.14
2017-08-13T21:20:05.090Z,101800.08
2017-08-13T21:22:48.212Z,101799.33
2017-08-13T21:25:32.093Z,101796.24
2017-08-13T21:28:02.508Z,101798.94
2017-08-13T21:30:32.163Z,101798.36
2017-08-13T21:33:05.905Z,101801.55
2017-08-13T21:35:36.207Z,101800.91
2017-08-13T21:38:07.484Z,101801.12
2017-08-13T21:40:40.483Z,101805.98
2017-08-13T21:43:12.344Z,101804.45
2017-08-13T21:45:41.252Z,101808.47
2017-08-13T21:48:10.893Z,101810.02
2017-08-13T21:50:40.362Z,101816.58
2017-08-13T21:53:09.608Z,101812.47
2017-08-13T21:55:38.546Z,101813.88
2017-08-13T21:58:07.412Z,101809.37
2017-08-13T22:00:36.547Z,101817.22
2017-08-13T22:03:07.113Z,101813.95
2017-08-13T22:05:38.429Z,101818.34
2017-08-13T22:08:08.208Z,101825.53
2017-08-13T22:10:38.932Z,101826.02
2017-08-13T22:13:08.731Z,101824.83
2017-08-13T22:15:41.140Z,101825.08
2017-08-13T22:18:10.729Z,101820.89
2017-08-13T22:20:40.197Z,101828.41
2017-08-13T22:23:13.534Z,101825.94
2017-08-13T22:25:45.906Z,101818.75
2017-08-13T22:28:17.220Z,101820.63
2017-08-13T22:30:47.951Z,101816.45
2017-08-13T22:33:19.746Z,101820.48
2017-08-13T22:35:48.458Z,101816.30
2017-08-13T22:38:17.939Z,101816.92
2017-08-13T22:40:46.850Z,101827.27
2017-08-13T22:43:15.516Z,101814.89
2017-08-13T22:45:44.232Z,101816.77
2017-08-13T22:48:12.899Z,101820.84
2017-08-13T22:50:42.769Z,101820.55
2017-08-13T22:53:13.294Z,101822.39
2017-08-13T22:55:43.234Z,101823.26
2017-08-13T22:58:13.245Z,101822.13
2017-08-13T23:00:44.476Z,101824.39
2017-08-13T23:03:15.655Z,101821.88
2017-08-13T23:05:44.838Z,101822.14
2017-08-13T23:08:15.168Z,101820.01
2017-08-13T23:10:45.288Z,101824.84
2017-08-13T23:13:15.040Z,101821.27
2017-08-13T23:15:45.280Z,101826.45
2017-08-13T23:18:14.861Z,101823.55
2017-08-13T23:20:45.138Z,101824.55
2017-08-13T23:23:14.671Z,101824.73
2017-08-13T23:25:44.655Z,101826.09
2017-08-13T23:28:13.391Z,101832.81
2017-08-13T23:30:42.354Z,101833.27
2017-08-13T23:33:10.829Z,101835.96
2017-08-13T23:35:39.697Z,101833.77
2017-08-13T23:38:08.371Z,101837.76
2017-08-13T23:40:37.969Z,101840.58
2017-08-13T23:43:06.679Z,101832.44
2017-08-13T23:45:35.448Z,101827.89
2017-08-13T23:48:04.266Z,101838.28
2017-08-13T23:50:32.963Z,101838.41
2017-08-13T23:53:04.817Z,101832.92
2017-08-13T23:55:33.484Z,101841.31
2017-08-13T23:58:02.214Z,101837.09
